Time;durP1;ratioP1;P1;durP2;ratioP2;P2;SDS_P1;SDS_P2;PMS_P1;PMS_P2;Temp;Humidity;BMP_temperature;BMP_pressure;BME280_temperature;BME280_humidity;BME280_pressure;Samples;Min_cycle;Max_cycle;Signal;HPM_P1;HPM_P2
2021/07/18 00:00:33;;;;;;;3.10;2.80;;;22.10;98.50;;;;;;5018411;28;20541;-83
2021/07/18 00:03:00;;;;;;;3.90;2.63;;;22.00;98.70;;;;;;5019483;28;20536;-84
2021/07/18 00:05:27;;;;;;;2.87;2.40;;;22.00;98.80;;;;;;5033403;28;20538;-83
2021/07/18 00:07:54;;;;;;;3.93;2.50;;;22.00;99.00;;;;;;4999304;28;20472;-83
2021/07/18 00:10:24;;;;;;;3.03;2.70;;;22.00;99.30;;;;;;4999868;28;20449;-84
2021/07/18 00:12:51;;;;;;;3.30;3.00;;;21.90;99.40;;;;;;5012741;28;20481;-88
2021/07/18 00:15:18;;;;;;;2.67;2.47;;;22.00;99.60;;;;;;5034888;28;20517;-88
2021/07/18 00:17:45;;;;;;;9.23;4.50;;;22.00;99.40;;;;;;5030324;28;20521;-84
2021/07/18 00:20:13;;;;;;;2.63;2.43;;;22.00;99.50;;;;;;5035548;28;20456;-84
2021/07/18 00:22:42;;;;;;;3.80;2.80;;;21.90;99.60;;;;;;5018233;28;20469;-83
2021/07/18 00:25:11;;;;;;;3.83;2.43;;;21.80;99.90;;;;;;5026383;28;20473;-88
2021/07/18 00:27:38;;;;;;;3.37;2.83;;;21.80;99.90;;;;;;5043321;28;20453;-84
2021/07/18 00:30:09;;;;;;;3.60;2.57;;;21.80;99.90;;;;;;5023899;28;20449;-84
2021/07/18 00:32:36;;;;;;;3.53;2.50;;;21.80;99.90;;;;;;5040805;28;20459;-85
2021/07/18 00:35:04;;;;;;;5.83;2.63;;;21.90;99.90;;;;;;5040165;28;20537;-83
2021/07/18 00:37:31;;;;;;;2.53;1.90;;;21.80;99.90;;;;;;5040840;28;20445;-83
2021/07/18 00:39:57;;;;;;;3.00;2.63;;;21.80;99.90;;;;;;5037791;28;20453;-85
2021/07/18 00:42:24;;;;;;;2.70;2.50;;;21.90;99.90;;;;;;5021537;28;20482;-86
2021/07/18 00:44:51;;;;;;;3.10;2.40;;;21.80;99.90;;;;;;5033615;28;20848;-85
2021/07/18 00:47:18;;;;;;;3.30;2.83;;;21.80;99.90;;;;;;5041088;28;20757;-86
2021/07/18 00:49:45;;;;;;;14.77;2.90;;;21.70;99.90;;;;;;5021581;28;20498;-85
2021/07/18 00:52:12;;;;;;;6.70;3.03;;;21.70;99.90;;;;;;5040707;28;20473;-85
2021/07/18 00:54:38;;;;;;;3.20;2.40;;;21.70;99.90;;;;;;5023344;28;20453;-86
2021/07/18 00:57:06;;;;;;;2.80;2.60;;;21.60;99.90;;;;;;5024993;28;20456;-84
2021/07/18 00:59:35;;;;;;;3.17;2.87;;;21.60;99.90;;;;;;5023953;28;20456;-85
2021/07/18 01:02:02;;;;;;;7.60;3.03;;;21.60;99.90;;;;;;5019874;28;20478;-83
2021/07/18 01:04:30;;;;;;;8.23;3.00;;;21.60;99.90;;;;;;5015396;28;20541;-90
2021/07/18 01:06:57;;;;;;;4.03;2.57;;;21.60;99.90;;;;;;5038344;28;20435;-89
2021/07/18 01:09:30;;;;;;;3.70;2.80;;;21.60;99.90;;;;;;5030734;28;20446;-89
2021/07/18 01:12:01;;;;;;;3.60;2.90;;;21.60;99.90;;;;;;5018975;28;20504;-89
2021/07/18 01:14:33;;;;;;;3.57;3.27;;;21.50;99.90;;;;;;5035697;28;20433;-91
2021/07/18 01:17:07;;;;;;;7.07;3.77;;;21.40;99.90;;;;;;5010605;28;20537;-83
2021/07/18 01:19:34;;;;;;;3.40;3.10;;;21.30;99.90;;;;;;5012553;28;20457;-85
2021/07/18 01:22:08;;;;;;;5.00;3.33;;;21.30;99.90;;;;;;5022655;28;20487;-85
2021/07/18 01:24:43;;;;;;;8.97;3.20;;;21.20;99.90;;;;;;5023036;28;20978;-85
2021/07/18 01:27:10;;;;;;;5.73;2.93;;;21.20;99.90;;;;;;5013651;28;20462;-85
2021/07/18 01:29:37;;;;;;;4.57;3.50;;;21.10;99.90;;;;;;5001517;28;20454;-83
2021/07/18 01:32:04;;;;;;;6.00;3.47;;;21.00;99.90;;;;;;5001030;28;20498;-84
2021/07/18 01:34:31;;;;;;;8.90;3.50;;;21.00;99.90;;;;;;5003819;28;20449;-87
2021/07/18 01:36:58;;;;;;;5.73;3.70;;;21.00;99.90;;;;;;5020243;28;20468;-85
2021/07/18 01:39:25;;;;;;;4.03;3.60;;;20.90;99.90;;;;;;5043223;28;20501;-85
2021/07/18 01:41:57;;;;;;;6.40;3.50;;;20.90;99.90;;;;;;5024996;28;20581;-85
2021/07/18 01:44:27;;;;;;;3.93;2.90;;;20.90;99.90;;;;;;5021994;28;20477;-84
2021/07/18 01:46:54;;;;;;;6.10;3.40;;;20.90;99.90;;;;;;5008338;28;20465;-86
2021/07/18 01:49:24;;;;;;;5.13;3.23;;;20.90;99.90;;;;;;5027017;28;20516;-85
2021/07/18 01:52:06;;;;;;;3.27;2.97;;;20.90;99.90;;;;;;5007507;28;20466;-84
2021/07/18 01:54:55;;;;;;;3.43;3.07;;;20.90;99.90;;;;;;5006641;28;20465;-86
2021/07/18 01:57:39;;;;;;;3.60;3.30;;;20.90;99.90;;;;;;4993791;28;20549;-84
2021/07/18 02:00:23;;;;;;;6.40;3.50;;;20.80;99.90;;;;;;5000654;28;20460;-83
2021/07/18 02:02:52;;;;;;;3.60;3.30;;;20.80;99.90;;;;;;5017966;28;20549;-84
2021/07/18 02:05:45;;;;;;;5.37;3.67;;;20.80;99.90;;;;;;5021932;28;20482;-91
2021/07/18 02:08:35;;;;;;;4.30;3.10;;;20.70;99.90;;;;;;5021215;28;20453;-88
2021/07/18 02:11:26;;;;;;;5.07;3.93;;;20.60;99.90;;;;;;5039235;28;20537;-91
2021/07/18 02:14:07;;;;;;;4.23;3.63;;;20.60;99.90;;;;;;5017214;28;20467;-88
2021/07/18 02:16:54;;;;;;;3.33;3.00;;;20.60;99.90;;;;;;5012287;28;20446;-85
2021/07/18 02:19:36;;;;;;;4.53;3.30;;;20.50;99.90;;;;;;5009013;28;20612;-85
2021/07/18 02:22:17;;;;;;;8.83;4.07;;;20.50;99.90;;;;;;5010041;28;20520;-86
2021/07/18 02:24:55;;;;;;;3.63;3.33;;;20.50;99.90;;;;;;5009754;28;20505;-85
2021/07/18 02:27:22;;;;;;;4.73;3.80;;;20.50;99.90;;;;;;5006055;28;20474;-84
2021/07/18 02:29:52;;;;;;;4.23;3.83;;;20.40;99.90;;;;;;5014134;28;20488;-86
2021/07/18 02:32:33;;;;;;;5.93;3.67;;;20.40;99.90;;;;;;5019588;28;20495;-88
2021/07/18 02:35:01;;;;;;;5.20;4.17;;;20.40;99.90;;;;;;5020531;28;20460;-83
2021/07/18 02:37:27;;;;;;;7.23;4.13;;;20.40;99.90;;;;;;5039151;28;20464;-85
2021/07/18 02:39:57;;;;;;;3.87;3.20;;;20.30;99.90;;;;;;5044120;28;20453;-86
2021/07/18 02:42:31;;;;;;;6.87;3.63;;;20.30;99.90;;;;;;5023959;28;20863;-88
2021/07/18 02:45:11;;;;;;;4.63;3.80;;;20.30;99.90;;;;;;5026361;28;20997;-84
2021/07/18 02:47:44;;;;;;;4.50;3.90;;;20.30;99.90;;;;;;5027001;28;20441;-86
2021/07/18 02:50:16;;;;;;;3.97;3.60;;;20.20;99.90;;;;;;5035966;28;20541;-87
2021/07/18 02:56:18;;;;;;;5.83;4.30;;;20.20;99.90;;;;;;4963205;29;20456;-85
2021/07/18 03:05:52;;;;;;;4.93;4.33;;;20.00;99.90;;;;;;5022438;28;20479;-85
2021/07/18 03:08:38;;;;;;;3.57;3.27;;;20.00;99.90;;;;;;5006835;28;20460;-85
2021/07/18 03:11:55;;;;;;;6.27;4.27;;;19.90;99.90;;;;;;4996450;28;20496;-84
2021/07/18 03:15:03;;;;;;;;;;;;;;;;;;;;;
2021/07/18 03:21:20;;;;;;;7.30;4.20;;;19.90;99.90;;;;;;4969705;28;20473;-83
2021/07/18 03:23:47;;;;;;;5.83;4.37;;;19.90;99.90;;;;;;5021281;28;20459;-83
2021/07/18 03:26:38;;;;;;;4.53;4.00;;;19.80;99.90;;;;;;5021861;28;20539;-84
2021/07/18 03:32:42;;;;;;;4.90;4.10;;;19.70;99.90;;;;;;5049674;23;20493;-84
2021/07/18 03:35:54;;;;;;;4.63;4.10;;;19.70;99.90;;;;;;5029510;28;20445;-85
2021/07/18 03:38:34;;;;;;;5.27;4.73;;;19.70;99.90;;;;;;5017852;28;20442;-84
2021/07/18 03:41:01;;;;;;;5.80;3.97;;;19.60;99.90;;;;;;5022541;28;20561;-84
2021/07/18 03:43:27;;;;;;;5.20;4.60;;;19.60;99.90;;;;;;5025218;28;20509;-84
2021/07/18 03:46:00;;;;;;;4.73;4.10;;;19.60;99.90;;;;;;5026358;28;20477;-85
2021/07/18 03:48:37;;;;;;;5.10;4.60;;;19.50;99.90;;;;;;5036224;28;20531;-84
2021/07/18 03:51:25;;;;;;;5.90;4.70;;;19.50;99.90;;;;;;5050815;28;20477;-85
2021/07/18 03:54:01;;;;;;;4.67;4.27;;;19.50;99.90;;;;;;5020581;28;20447;-85
2021/07/18 03:56:37;;;;;;;7.17;4.60;;;19.60;99.90;;;;;;5020903;28;20919;-86
2021/07/18 03:59:04;;;;;;;6.80;4.50;;;19.50;99.90;;;;;;5019332;28;20528;-84
2021/07/18 04:01:30;;;;;;;5.37;4.30;;;19.50;99.90;;;;;;5050765;28;20480;-85
2021/07/18 04:03:57;;;;;;;9.93;4.90;;;19.40;99.90;;;;;;5038300;28;20448;-85
2021/07/18 04:06:24;;;;;;;5.13;4.53;;;19.50;99.90;;;;;;5044931;28;20482;-91
2021/07/18 04:08:53;;;;;;;4.90;4.50;;;19.50;99.90;;;;;;5076579;28;20440;-91
2021/07/18 04:11:20;;;;;;;5.13;4.63;;;19.60;99.90;;;;;;5060317;28;20468;-92
2021/07/18 04:14:02;;;;;;;7.17;4.20;;;19.50;99.90;;;;;;5060901;28;20444;-89
2021/07/18 04:16:32;;;;;;;7.80;5.10;;;19.50;99.90;;;;;;5061464;28;20508;-90
2021/07/18 04:18:59;;;;;;;6.70;4.63;;;19.50;99.90;;;;;;5048825;28;20475;-86
2021/07/18 04:21:33;;;;;;;6.40;5.13;;;19.50;99.90;;;;;;5047470;28;20456;-87
2021/07/18 04:24:00;;;;;;;7.90;5.20;;;19.50;99.90;;;;;;5047478;28;20456;-86
2021/07/18 04:26:27;;;;;;;5.20;4.70;;;19.60;99.90;;;;;;5045357;28;20498;-87
2021/07/18 04:28:54;;;;;;;7.13;5.07;;;19.50;99.90;;;;;;5044846;28;20896;-85
2021/07/18 04:31:41;;;;;;;4.57;4.13;;;19.50;99.90;;;;;;5033688;28;20485;-86
2021/07/18 04:34:10;;;;;;;5.47;4.40;;;19.50;99.90;;;;;;5020999;28;20462;-88
2021/07/18 04:36:36;;;;;;;5.70;4.50;;;19.60;99.90;;;;;;5013102;28;20458;-84
2021/07/18 04:39:15;;;;;;;5.17;4.40;;;19.50;99.90;;;;;;5030655;28;20465;-86
2021/07/18 04:41:49;;;;;;;6.90;5.20;;;19.60;99.90;;;;;;5031514;28;20452;-85
2021/07/18 04:44:16;;;;;;;7.27;5.17;;;19.50;99.90;;;;;;5039787;28;20522;-86
2021/07/18 04:46:43;;;;;;;5.47;4.97;;;19.60;99.90;;;;;;5019245;28;20454;-87
2021/07/18 04:49:09;;;;;;;6.43;4.77;;;19.60;99.90;;;;;;5013990;28;20434;-84
2021/07/18 04:51:37;;;;;;;9.57;5.03;;;19.50;99.90;;;;;;5021947;28;20469;-84
2021/07/18 04:54:10;;;;;;;6.40;5.80;;;19.60;99.90;;;;;;5019512;28;20507;-84
2021/07/18 04:56:36;;;;;;;7.30;5.50;;;19.80;99.90;;;;;;5021720;28;20449;-84
2021/07/18 04:59:03;;;;;;;8.43;5.30;;;19.80;99.90;;;;;;5022054;28;20453;-86
2021/07/18 05:01:36;;;;;;;6.47;5.20;;;19.80;99.90;;;;;;5013844;28;20540;-84
2021/07/18 05:04:10;;;;;;;7.63;5.40;;;19.70;99.90;;;;;;5023416;28;20887;-86
2021/07/18 05:06:40;;;;;;;6.07;5.47;;;19.80;99.90;;;;;;5023457;28;20501;-83
2021/07/18 05:09:17;;;;;;;6.70;6.00;;;19.80;99.90;;;;;;5014738;28;20450;-84
2021/07/18 05:11:50;;;;;;;6.20;5.60;;;19.80;99.90;;;;;;5013827;28;20560;-86
2021/07/18 05:14:22;;;;;;;7.83;5.80;;;19.90;99.90;;;;;;5030219;28;20444;-87
2021/07/18 05:16:49;;;;;;;6.77;6.07;;;20.10;99.90;;;;;;5039789;28;20418;-90
2021/07/18 05:19:16;;;;;;;7.37;6.60;;;20.10;99.90;;;;;;5054350;28;20455;-86
2021/07/18 05:21:56;;;;;;;10.50;8.83;;;20.20;99.90;;;;;;5028457;28;20856;-88
2021/07/18 05:24:29;;;;;;;10.30;8.60;;;20.20;99.90;;;;;;5032876;28;20445;-86
2021/07/18 05:26:56;;;;;;;10.97;8.13;;;20.00;99.90;;;;;;5026171;28;20472;-86
2021/07/18 05:29:23;;;;;;;10.10;8.43;;;20.00;99.90;;;;;;5025238;28;20453;-85
2021/07/18 05:31:50;;;;;;;9.30;8.17;;;20.00;99.90;;;;;;5015306;28;20486;-86
2021/07/18 05:34:23;;;;;;;8.17;7.40;;;20.00;99.90;;;;;;5013543;28;20456;-86
2021/07/18 05:37:10;;;;;;;10.17;8.70;;;20.10;99.90;;;;;;5018033;28;20453;-86
2021/07/18 05:39:44;;;;;;;12.60;8.03;;;20.40;99.90;;;;;;5019498;28;20591;-86
2021/07/18 05:42:28;;;;;;;11.03;8.67;;;20.50;99.90;;;;;;5029538;28;20464;-84
2021/07/18 05:44:58;;;;;;;10.67;7.43;;;20.70;99.90;;;;;;5025867;28;20553;-85
2021/07/18 05:47:28;;;;;;;9.90;7.07;;;20.40;99.90;;;;;;5025971;28;20520;-86
2021/07/18 05:49:57;;;;;;;8.43;7.63;;;20.40;99.90;;;;;;5040173;28;20459;-84
2021/07/18 05:52:37;;;;;;;7.47;6.77;;;20.40;99.90;;;;;;5023772;28;20515;-84
2021/07/18 05:55:14;;;;;;;7.43;6.40;;;20.20;99.90;;;;;;5024951;28;20506;-85
2021/07/18 05:57:50;;;;;;;7.33;5.60;;;20.10;99.90;;;;;;5024201;28;20449;-84
2021/07/18 06:00:20;;;;;;;8.90;5.90;;;20.00;99.90;;;;;;5026615;28;20457;-84
2021/07/18 06:03:02;;;;;;;9.10;6.47;;;20.10;99.90;;;;;;5018792;28;20442;-84
2021/07/18 06:05:35;;;;;;;9.07;6.10;;;20.10;99.90;;;;;;5028273;28;20537;-90
2021/07/18 06:08:08;;;;;;;6.13;5.17;;;20.10;99.90;;;;;;5034065;28;20528;-85
2021/07/18 06:10:51;;;;;;;9.00;5.90;;;20.20;99.90;;;;;;5024883;28;20476;-86
2021/07/18 06:13:24;;;;;;;7.53;6.00;;;20.30;99.90;;;;;;5017172;28;20468;-87
2021/07/18 06:15:55;;;;;;;7.47;5.73;;;20.80;99.90;;;;;;5025979;28;20460;-86
2021/07/18 06:18:22;;;;;;;7.37;6.57;;;21.10;99.90;;;;;;5026136;28;20803;-87
2021/07/18 06:20:49;;;;;;;7.87;6.47;;;21.00;99.90;;;;;;5026157;28;20922;-88
2021/07/18 06:23:27;;;;;;;7.57;6.07;;;20.90;99.90;;;;;;5043711;28;20973;-86
2021/07/18 06:26:07;;;;;;;6.60;5.90;;;20.80;99.90;;;;;;5033641;28;20465;-87
2021/07/18 06:28:49;;;;;;;6.80;6.10;;;20.80;99.90;;;;;;5036353;28;20571;-87
2021/07/18 06:31:33;;;;;;;9.43;6.07;;;20.90;99.90;;;;;;5032758;28;20989;-88
2021/07/18 06:34:00;;;;;;;8.77;6.40;;;21.00;99.90;;;;;;5037482;28;20903;-87
2021/07/18 06:36:27;;;;;;;10.10;6.63;;;21.30;99.90;;;;;;5033641;28;20445;-85
2021/07/18 06:38:56;;;;;;;9.60;6.20;;;21.30;99.90;;;;;;5029697;28;20450;-88
2021/07/18 06:41:24;;;;;;;6.40;5.80;;;21.50;99.90;;;;;;5027634;28;20537;-86
2021/07/18 06:44:02;;;;;;;8.67;6.67;;;21.30;99.90;;;;;;5012254;28;20434;-85
2021/07/18 06:46:46;;;;;;;8.10;6.93;;;21.40;99.90;;;;;;5020642;28;20480;-87
2021/07/18 06:49:12;;;;;;;9.00;6.20;;;21.70;99.90;;;;;;5024680;28;21026;-86
2021/07/18 06:51:39;;;;;;;6.97;6.27;;;21.70;99.90;;;;;;5026349;28;20492;-89
2021/07/18 06:54:09;;;;;;;9.47;7.40;;;21.90;99.90;;;;;;5029784;28;20441;-86
2021/07/18 06:56:38;;;;;;;10.20;6.17;;;22.00;99.90;;;;;;5023617;28;20518;-85
2021/07/18 06:59:24;;;;;;;8.43;6.43;;;21.80;99.90;;;;;;5026632;28;20840;-87
2021/07/18 07:01:51;;;;;;;6.33;5.73;;;21.60;99.90;;;;;;5024207;28;21065;-87
2021/07/18 07:04:33;;;;;;;7.10;4.97;;;21.60;99.90;;;;;;5021211;28;20521;-85
2021/07/18 07:07:03;;;;;;;5.40;4.77;;;21.60;99.90;;;;;;5013017;28;20500;-86
2021/07/18 07:09:30;;;;;;;5.37;4.97;;;22.00;99.90;;;;;;5023246;28;20509;-86
2021/07/18 07:11:57;;;;;;;6.30;5.47;;;22.10;99.90;;;;;;5025685;28;20545;-85
2021/07/18 07:14:24;;;;;;;5.33;4.60;;;21.90;99.90;;;;;;5035729;28;20450;-87
2021/07/18 07:16:51;;;;;;;5.33;4.80;;;21.90;99.90;;;;;;5024712;28;20453;-86
2021/07/18 07:19:18;;;;;;;4.67;4.03;;;22.00;99.90;;;;;;5024275;28;20848;-86
2021/07/18 07:21:44;;;;;;;8.77;5.10;;;22.10;99.90;;;;;;5025063;28;20785;-85
2021/07/18 07:24:23;;;;;;;5.10;3.77;;;22.10;99.90;;;;;;5045117;28;20442;-86
2021/07/18 07:27:00;;;;;;;4.83;4.20;;;22.20;99.90;;;;;;5027694;28;20539;-86
2021/07/18 07:32:39;;;;;;;6.80;3.53;;;22.50;99.90;;;;;;5029642;28;20556;-91
2021/07/18 07:35:12;;;;;;;3.90;3.60;;;23.10;98.90;;;;;;5021959;28;20438;-90
2021/07/18 07:37:54;;;;;;;5.03;3.87;;;23.30;98.00;;;;;;5036293;28;20497;-90
2021/07/18 07:40:29;;;;;;;8.23;4.00;;;23.10;98.30;;;;;;5008992;28;20481;-86
2021/07/18 07:43:11;;;;;;;3.70;3.13;;;22.80;98.50;;;;;;5015272;28;20990;-85
2021/07/18 07:45:39;;;;;;;4.00;2.60;;;22.70;99.10;;;;;;5014738;28;20675;-86
2021/07/18 07:48:06;;;;;;;4.73;3.60;;;23.10;98.20;;;;;;5016880;28;20457;-85
2021/07/18 07:50:33;;;;;;;7.73;3.10;;;23.40;97.50;;;;;;5017655;28;20532;-86
2021/07/18 07:53:24;;;;;;;5.47;3.10;;;23.50;96.80;;;;;;5020208;28;20545;-84
2021/07/18 07:55:53;;;;;;;3.50;3.20;;;23.50;96.80;;;;;;4983535;28;21033;-84
2021/07/18 07:58:19;;;;;;;3.50;3.20;;;23.70;96.60;;;;;;5021139;28;20449;-84
2021/07/18 08:00:46;;;;;;;4.60;3.07;;;23.60;97.10;;;;;;5022180;28;20485;-85
2021/07/18 08:03:13;;;;;;;3.70;3.13;;;23.70;96.40;;;;;;5007156;28;20959;-86
2021/07/18 08:05:50;;;;;;;6.10;2.87;;;23.70;96.10;;;;;;5000457;28;20492;-86
2021/07/18 08:08:33;;;;;;;3.30;2.87;;;23.60;96.40;;;;;;5000450;28;20450;-86
2021/07/18 08:11:12;;;;;;;3.60;3.30;;;23.50;96.70;;;;;;5001287;28;20480;-86
2021/07/18 08:13:57;;;;;;;3.87;2.97;;;23.90;96.30;;;;;;5036964;28;20450;-85
2021/07/18 08:16:24;;;;;;;5.17;2.93;;;24.20;95.90;;;;;;5021397;28;20461;-85
2021/07/18 08:18:58;;;;;;;3.53;2.27;;;24.20;95.60;;;;;;5021958;28;20525;-85
2021/07/18 08:21:25;;;;;;;3.00;2.70;;;24.10;95.70;;;;;;5017053;28;20462;-84
2021/07/18 08:24:18;;;;;;;3.10;2.80;;;24.10;95.50;;;;;;5004424;28;20454;-84
2021/07/18 08:26:59;;;;;;;3.17;2.33;;;24.90;94.60;;;;;;5014501;28;20535;-84
2021/07/18 08:29:47;;;;;;;3.70;2.70;;;25.80;92.50;;;;;;5013733;28;20544;-84
2021/07/18 08:32:23;;;;;;;3.60;3.03;;;26.20;91.90;;;;;;5021230;28;20489;-84
2021/07/18 08:34:53;;;;;;;2.97;2.43;;;26.20;91.50;;;;;;5022298;28;20485;-84
2021/07/18 08:37:20;;;;;;;4.13;2.90;;;25.80;91.40;;;;;;5038838;28;20448;-81
2021/07/18 08:39:51;;;;;;;3.03;2.43;;;25.50;91.90;;;;;;5019810;28;20453;-84
2021/07/18 08:42:25;;;;;;;3.03;2.60;;;26.30;91.40;;;;;;5033254;28;20495;-85
2021/07/18 08:45:10;;;;;;;3.10;2.60;;;26.70;90.80;;;;;;5042173;28;20456;-85
2021/07/18 08:47:39;;;;;;;4.10;2.50;;;27.70;86.40;;;;;;5024821;28;20445;-86
2021/07/18 08:50:19;;;;;;;3.87;2.50;;;27.90;83.30;;;;;;5040523;28;20813;-84
2021/07/18 08:52:55;;;;;;;3.33;2.60;;;27.80;82.90;;;;;;5041738;28;20438;-84
2021/07/18 08:55:28;;;;;;;4.00;2.50;;;27.70;81.90;;;;;;5023275;28;20452;-85
2021/07/18 08:57:58;;;;;;;3.60;2.70;;;27.80;82.00;;;;;;5037479;28;20515;-85
2021/07/18 09:00:34;;;;;;;3.03;2.73;;;29.00;76.80;;;;;;5036023;28;20457;-90
2021/07/18 09:03:34;;;;;;;3.10;2.63;;;30.60;70.60;;;;;;5030391;28;20461;-86
2021/07/18 09:06:08;;;;;;;2.50;2.30;;;32.00;62.90;;;;;;5025662;28;21024;-84
2021/07/18 09:08:56;;;;;;;3.30;3.00;;;32.10;60.30;;;;;;5005547;28;20430;-84
2021/07/18 09:12:05;;;;;;;3.00;2.80;;;33.50;57.30;;;;;;5019802;28;20465;-85
2021/07/18 09:14:46;;;;;;;3.00;2.70;;;34.60;53.70;;;;;;5025377;28;20484;-84
2021/07/18 09:17:16;;;;;;;3.20;2.90;;;34.90;52.40;;;;;;5024135;28;20451;-87
2021/07/18 09:19:47;;;;;;;3.73;2.73;;;34.20;52.70;;;;;;5021661;28;20462;-85
2021/07/18 09:22:19;;;;;;;2.90;2.40;;;34.00;53.10;;;;;;5005736;28;20473;-87
2021/07/18 09:24:51;;;;;;;2.80;2.60;;;34.30;52.90;;;;;;5010033;28;20476;-86
2021/07/18 09:27:25;;;;;;;2.93;2.73;;;34.50;51.80;;;;;;5041897;28;20947;-86
2021/07/18 09:29:54;;;;;;;5.80;2.43;;;35.10;49.70;;;;;;5041695;28;20541;-86
2021/07/18 09:32:24;;;;;;;3.00;2.50;;;35.70;48.10;;;;;;5023684;28;20504;-86
2021/07/18 09:35:05;;;;;;;3.43;2.70;;;35.30;48.30;;;;;;5025827;28;20441;-86
2021/07/18 09:37:45;;;;;;;4.43;2.90;;;34.60;49.70;;;;;;5025277;28;20425;-86
2021/07/18 09:40:21;;;;;;;2.97;2.33;;;34.30;49.40;;;;;;5023837;28;20434;-83
2021/07/18 09:42:53;;;;;;;2.87;2.63;;;33.30;50.20;;;;;;5006188;28;20508;-86
2021/07/18 09:45:21;;;;;;;2.80;2.57;;;34.30;49.30;;;;;;5007529;28;20440;-84
2021/07/18 09:47:52;;;;;;;2.87;2.47;;;33.90;49.90;;;;;;5010466;28;20508;-85
2021/07/18 09:50:29;;;;;;;6.63;5.60;;;33.70;50.00;;;;;;5024273;28;20476;-85
2021/07/18 09:53:24;;;;;;;3.23;2.70;;;34.20;49.20;;;;;;5007896;28;20442;-85
2021/07/18 09:56:20;;;;;;;2.63;2.43;;;35.40;47.40;;;;;;4931057;29;20485;-84
2021/07/18 09:58:57;;;;;;;3.40;3.00;;;35.70;46.50;;;;;;5026291;28;20471;-85
2021/07/18 10:01:25;;;;;;;2.90;2.63;;;35.10;47.40;;;;;;5035399;28;20513;-89
2021/07/18 10:03:57;;;;;;;3.40;2.90;;;35.30;47.50;;;;;;5055667;28;20436;-88
2021/07/18 10:06:39;;;;;;;3.50;3.20;;;35.00;46.90;;;;;;5038834;28;20445;-89
2021/07/18 10:09:14;;;;;;;3.20;2.90;;;35.00;47.10;;;;;;5039539;28;20440;-90
2021/07/18 10:11:53;;;;;;;3.03;2.67;;;35.80;45.10;;;;;;5048282;28;20531;-85
2021/07/18 10:14:35;;;;;;;3.13;2.93;;;35.30;46.40;;;;;;5024150;28;20498;-85
2021/07/18 10:17:16;;;;;;;4.00;3.50;;;35.30;46.50;;;;;;5026086;28;20476;-86
2021/07/18 10:19:57;;;;;;;3.63;3.33;;;35.90;45.00;;;;;;5003648;28;20451;-87
2021/07/18 10:22:51;;;;;;;5.27;3.80;;;35.70;45.40;;;;;;5016013;28;20457;-86
2021/07/18 10:25:50;;;;;;;3.20;3.00;;;34.90;46.20;;;;;;5040873;28;20483;-84
2021/07/18 10:28:30;;;;;;;5.40;3.27;;;34.10;47.30;;;;;;5018759;28;20448;-85
2021/07/18 10:31:41;;;;;;;3.23;2.70;;;35.10;46.20;;;;;;5012631;28;20492;-84
2021/07/18 10:34:18;;;;;;;4.30;3.80;;;35.40;45.60;;;;;;4998292;28;20454;-86
2021/07/18 10:36:49;;;;;;;2.93;2.60;;;35.10;45.60;;;;;;5034900;28;20481;-84
2021/07/18 10:39:30;;;;;;;3.00;2.80;;;34.50;45.90;;;;;;5038556;28;20460;-84
2021/07/18 10:41:58;;;;;;;2.73;2.53;;;33.60;47.50;;;;;;5039231;28;20611;-85
2021/07/18 10:44:48;;;;;;;2.80;2.60;;;33.60;47.90;;;;;;5009188;28;20969;-86
2021/07/18 10:47:16;;;;;;;3.83;2.30;;;34.40;46.80;;;;;;5033175;28;21302;-87
2021/07/18 10:49:58;;;;;;;3.20;2.70;;;34.20;46.50;;;;;;5046420;28;20463;-86
2021/07/18 10:52:36;;;;;;;2.93;2.33;;;33.80;47.70;;;;;;5026450;28;20481;-89
2021/07/18 10:55:22;;;;;;;3.00;2.80;;;34.00;47.80;;;;;;5007309;28;20453;-87
2021/07/18 10:57:49;;;;;;;2.70;2.40;;;33.80;47.20;;;;;;5023873;28;20493;-86
2021/07/18 11:00:26;;;;;;;2.70;2.50;;;34.70;46.50;;;;;;5013837;28;20453;-86
2021/07/18 11:03:04;;;;;;;2.93;2.47;;;35.40;45.20;;;;;;5030283;28;20456;-85
2021/07/18 11:05:42;;;;;;;3.00;2.30;;;35.00;45.00;;;;;;5047852;28;21106;-86
2021/07/18 11:08:17;;;;;;;2.47;2.27;;;35.30;44.70;;;;;;5040571;28;20462;-88
2021/07/18 11:10:49;;;;;;;1.93;1.83;;;34.30;45.80;;;;;;5031013;28;20527;-87
2021/07/18 11:13:16;;;;;;;2.40;2.20;;;33.20;46.90;;;;;;5031169;28;20436;-87
2021/07/18 11:15:43;;;;;;;2.43;2.23;;;32.70;47.90;;;;;;5027003;28;20471;-85
2021/07/18 11:18:22;;;;;;;2.30;1.97;;;33.20;48.10;;;;;;5005967;28;20497;-86
2021/07/18 11:20:55;;;;;;;2.43;2.23;;;33.90;47.40;;;;;;5004981;28;20469;-89
2021/07/18 11:23:55;;;;;;;2.43;2.33;;;34.20;46.00;;;;;;5041787;28;20431;-85
2021/07/18 11:26:22;;;;;;;1.93;1.83;;;34.00;46.30;;;;;;5019624;28;20456;-84
2021/07/18 11:29:02;;;;;;;2.40;2.27;;;34.00;46.30;;;;;;5008000;28;20485;-85
2021/07/18 11:31:40;;;;;;;3.60;2.50;;;33.80;45.70;;;;;;5005241;28;20481;-84
2021/07/18 11:34:10;;;;;;;2.50;2.37;;;34.10;46.00;;;;;;5022888;28;20486;-85
2021/07/18 11:36:45;;;;;;;3.30;2.67;;;34.60;44.90;;;;;;5024233;28;20568;-85
2021/07/18 11:39:26;;;;;;;2.37;2.20;;;34.20;45.20;;;;;;5008396;28;20457;-84
2021/07/18 11:41:56;;;;;;;5.30;2.20;;;33.80;45.60;;;;;;5007140;28;20500;-85
2021/07/18 11:44:25;;;;;;;4.70;2.87;;;34.50;44.70;;;;;;5025263;28;20454;-85
2021/07/18 11:47:01;;;;;;;2.20;2.10;;;34.90;44.20;;;;;;5024864;28;20441;-85
2021/07/18 11:49:48;;;;;;;3.40;2.60;;;35.00;44.00;;;;;;5007481;28;20430;-84
2021/07/18 11:52:23;;;;;;;3.20;2.90;;;34.10;44.80;;;;;;5013910;28;20465;-83
2021/07/18 11:54:54;;;;;;;2.97;2.47;;;33.40;45.60;;;;;;5031499;28;20452;-87
2021/07/18 11:57:21;;;;;;;2.40;2.03;;;33.10;46.50;;;;;;5028850;28;20472;-87
2021/07/18 11:59:48;;;;;;;2.57;2.37;;;32.80;46.40;;;;;;5027499;28;20445;-84
2021/07/18 12:02:15;;;;;;;3.70;2.20;;;33.90;45.90;;;;;;5033581;28;20512;-85
2021/07/18 12:04:43;;;;;;;4.70;2.37;;;33.80;45.70;;;;;;5034267;28;20445;-84
2021/07/18 12:07:17;;;;;;;2.77;2.50;;;33.60;46.50;;;;;;5025320;28;20452;-84
2021/07/18 12:10:03;;;;;;;3.00;2.70;;;34.10;45.40;;;;;;5027199;28;20476;-87
2021/07/18 12:12:29;;;;;;;3.87;2.67;;;34.30;44.60;;;;;;5024506;28;20523;-84
2021/07/18 12:14:56;;;;;;;3.60;2.50;;;34.40;44.80;;;;;;5042975;28;20437;-86
2021/07/18 12:17:53;;;;;;;3.10;2.60;;;33.70;45.20;;;;;;5024343;28;20560;-85
2021/07/18 12:20:28;;;;;;;4.10;2.90;;;34.20;44.50;;;;;;5014456;28;20454;-85
2021/07/18 12:23:09;;;;;;;2.90;2.40;;;34.50;44.30;;;;;;5030329;28;20453;-83
2021/07/18 12:25:36;;;;;;;4.10;2.80;;;34.40;43.60;;;;;;5037232;28;20450;-85
2021/07/18 12:28:03;;;;;;;4.30;3.20;;;34.00;45.00;;;;;;5035025;28;20454;-86
2021/07/18 12:30:30;;;;;;;2.50;2.27;;;33.70;45.20;;;;;;5020632;28;20449;-88
2021/07/18 12:33:11;;;;;;;4.20;2.30;;;34.20;44.50;;;;;;5039510;28;20472;-87
2021/07/18 12:35:38;;;;;;;4.07;2.10;;;34.40;44.40;;;;;;5033993;28;20452;-85
2021/07/18 12:38:13;;;;;;;3.27;2.43;;;33.80;44.90;;;;;;5014106;28;20490;-88
2021/07/18 12:40:40;;;;;;;3.27;2.80;;;33.90;45.40;;;;;;5005007;28;20576;-87
2021/07/18 12:43:09;;;;;;;3.43;2.50;;;33.50;45.90;;;;;;5023856;28;20918;-84
2021/07/18 12:45:36;;;;;;;2.40;2.20;;;33.10;47.00;;;;;;5012864;28;20464;-85
2021/07/18 12:48:04;;;;;;;3.80;2.20;;;33.70;45.80;;;;;;5023682;28;20525;-86
2021/07/18 12:50:35;;;;;;;4.33;2.50;;;34.30;44.40;;;;;;5018163;28;20465;-87
2021/07/18 12:53:20;;;;;;;6.13;2.80;;;34.20;44.90;;;;;;5021242;28;20449;-85
2021/07/18 12:55:58;;;;;;;4.03;2.97;;;34.60;44.90;;;;;;5033924;28;20457;-85
2021/07/18 12:58:41;;;;;;;3.93;2.40;;;34.20;45.00;;;;;;5024718;28;20487;-85
2021/07/18 13:01:17;;;;;;;5.00;3.37;;;33.90;45.40;;;;;;5011018;28;20472;-84
2021/07/18 13:03:48;;;;;;;5.70;2.43;;;33.60;46.10;;;;;;5025276;28;20457;-87
2021/07/18 13:06:20;;;;;;;3.40;2.27;;;33.60;45.60;;;;;;5043443;28;20446;-85
2021/07/18 13:08:54;;;;;;;4.43;2.50;;;33.50;45.50;;;;;;5028328;28;20631;-84
2021/07/18 13:11:43;;;;;;;2.60;2.40;;;34.10;44.40;;;;;;5010834;28;20469;-85
2021/07/18 13:14:30;;;;;;;3.60;2.60;;;33.60;45.50;;;;;;5011364;28;20458;-86
2021/07/18 13:17:16;;;;;;;2.50;2.23;;;32.80;46.90;;;;;;5007934;28;20546;-85
2021/07/18 13:20:03;;;;;;;2.50;2.10;;;33.00;47.20;;;;;;5009766;28;20617;-87
2021/07/18 13:22:35;;;;;;;3.13;2.80;;;33.60;44.00;;;;;;5016055;28;20502;-85
2021/07/18 13:25:18;;;;;;;2.67;2.47;;;33.60;43.10;;;;;;5027251;28;21395;-87
2021/07/18 13:27:46;;;;;;;3.60;2.47;;;33.10;43.50;;;;;;5022762;28;20458;-83
2021/07/18 13:30:13;;;;;;;3.33;3.10;;;33.00;44.30;;;;;;5037342;28;20479;-85
2021/07/18 13:32:41;;;;;;;3.07;2.80;;;32.90;44.80;;;;;;5061102;28;20478;-85
2021/07/18 13:35:10;;;;;;;4.27;3.23;;;33.00;45.00;;;;;;5051003;28;20450;-85
2021/07/18 13:37:44;;;;;;;3.27;3.07;;;33.10;44.90;;;;;;5030056;28;20477;-86
2021/07/18 13:40:30;;;;;;;3.30;3.00;;;32.50;46.10;;;;;;5021656;28;20518;-84
2021/07/18 13:43:21;;;;;;;3.13;2.83;;;32.30;46.80;;;;;;5003549;28;20450;-83
2021/07/18 13:45:56;;;;;;;3.13;2.83;;;32.50;46.90;;;;;;5022524;28;20430;-84